GLORR EGNM-EGNM
Flight info
| Callsign | GLORR |
|---|---|
| Flight time | 0h 7m |
| Altitude | 3000 |
| Route | CIRCUITS |
| Aircraft | PA28/L-SDFGLY/C |
Departure
| Time | 2026-04-28 20:22 |
|---|---|
| Airport | Leeds Bradford Airport (EGNM) |
Arrival
| Time | 2026-04-28 20:29 |
|---|---|
| Airport | Leeds Bradford Airport (EGNM) |
| Time | Latitude | Longitude | Altitude | Speed | Heading |
|---|---|---|---|---|---|
| 2026-04-28 20:04 | 53.86511 | -1.66474 | 663 ft | 0 kts | 212° |
| 2026-04-28 20:13 | 53.86514 | -1.66460 | 663 ft | 3 kts | 45° |
| 2026-04-28 20:13 | 53.86535 | -1.66432 | 662 ft | 0 kts | 28° |
| 2026-04-28 20:14 | 53.86535 | -1.66431 | 662 ft | 0 kts | 28° |
| 2026-04-28 20:14 | 53.86544 | -1.66422 | 662 ft | 5 kts | 32° |
| 2026-04-28 20:15 | 53.86552 | -1.66380 | 662 ft | 6 kts | 114° |
| 2026-04-28 20:15 | 53.86503 | -1.66280 | 662 ft | 15 kts | 137° |
| 2026-04-28 20:15 | 53.86477 | -1.66231 | 661 ft | 1 kts | 102° |
| 2026-04-28 20:15 | 53.86481 | -1.66212 | 661 ft | 0 kts | 44° |
| 2026-04-28 20:18 | 53.86503 | -1.66171 | 660 ft | 17 kts | 46° |
| 2026-04-28 20:18 | 53.86552 | -1.66083 | 662 ft | 10 kts | 45° |
| 2026-04-28 20:18 | 53.86593 | -1.66061 | 663 ft | 20 kts | 340° |
| 2026-04-28 20:18 | 53.86787 | -1.66347 | 667 ft | 55 kts | 318° |
| 2026-04-28 20:19 | 53.87112 | -1.66840 | 669 ft | 53 kts | 318° |
| 2026-04-28 20:19 | 53.87206 | -1.67023 | 675 ft | 7 kts | 130° |
| 2026-04-28 20:19 | 53.87141 | -1.66905 | 671 ft | 8 kts | 137° |
| 2026-04-28 20:19 | 53.87105 | -1.66851 | 669 ft | 26 kts | 138° |
| 2026-04-28 20:20 | 53.86837 | -1.66445 | 667 ft | 70 kts | 138° |
| 2026-04-28 20:20 | 53.86464 | -1.65878 | 657 ft | 78 kts | 139° |
| 2026-04-28 20:20 | 53.86123 | -1.65360 | 657 ft | 43 kts | 136° |
| 2026-04-28 20:20 | 53.86065 | -1.65234 | 653 ft | 2 kts | 315° |
| 2026-04-28 20:21 | 53.86168 | -1.65408 | 657 ft | 47 kts | 317° |
| 2026-04-28 20:21 | 53.86539 | -1.65983 | 723 ft | 90 kts | 317° |
| 2026-04-28 20:21 | 53.87038 | -1.66787 | 918 ft | 108 kts | 315° |
| 2026-04-28 20:21 | 53.87598 | -1.67721 | 1178 ft | 115 kts | 314° |
| 2026-04-28 20:22 | 53.88089 | -1.68650 | 1621 ft | 96 kts | 307° |
| 2026-04-28 20:22 | 53.88245 | -1.69772 | 1490 ft | 108 kts | 246° |
| 2026-04-28 20:22 | 53.87662 | -1.70417 | 1432 ft | 100 kts | 189° |
| 2026-04-28 20:22 | 53.87004 | -1.70220 | 1450 ft | 98 kts | 153° |
| 2026-04-28 20:23 | 53.86465 | -1.69547 | 1455 ft | 96 kts | 140° |
| 2026-04-28 20:23 | 53.85973 | -1.68787 | 1419 ft | 99 kts | 137° |
| 2026-04-28 20:23 | 53.85490 | -1.68003 | 1471 ft | 92 kts | 136° |
| 2026-04-28 20:23 | 53.85011 | -1.67273 | 1493 ft | 91 kts | 139° |
| 2026-04-28 20:24 | 53.84553 | -1.66548 | 1511 ft | 91 kts | 137° |
| 2026-04-28 20:24 | 53.84065 | -1.65837 | 1519 ft | 89 kts | 155° |
| 2026-04-28 20:24 | 53.83499 | -1.65902 | 1583 ft | 84 kts | 216° |
| 2026-04-28 20:24 | 53.83202 | -1.66715 | 1645 ft | 87 kts | 259° |
| 2026-04-28 20:25 | 53.83446 | -1.67605 | 1701 ft | 91 kts | 327° |
| 2026-04-28 20:25 | 53.84089 | -1.67623 | 1673 ft | 103 kts | 29° |
| 2026-04-28 20:25 | 53.84394 | -1.66564 | 1666 ft | 108 kts | 96° |
| 2026-04-28 20:25 | 53.83989 | -1.65557 | 1738 ft | 102 kts | 153° |
| 2026-04-28 20:26 | 53.83279 | -1.65528 | 1678 ft | 110 kts | 205° |
| 2026-04-28 20:26 | 53.82832 | -1.66535 | 1592 ft | 115 kts | 263° |
| 2026-04-28 20:26 | 53.83163 | -1.67650 | 1619 ft | 110 kts | 328° |
| 2026-04-28 20:26 | 53.83904 | -1.67641 | 1595 ft | 113 kts | 29° |
| 2026-04-28 20:27 | 53.84278 | -1.66502 | 1521 ft | 119 kts | 89° |
| 2026-04-28 20:27 | 53.84107 | -1.65129 | 1393 ft | 123 kts | 116° |
| 2026-04-28 20:27 | 53.84056 | -1.63847 | 1530 ft | 96 kts | 65° |
| 2026-04-28 20:27 | 53.84441 | -1.63144 | 1569 ft | 77 kts | 31° |
| 2026-04-28 20:28 | 53.84928 | -1.63240 | 1354 ft | 80 kts | 308° |
| 2026-04-28 20:28 | 53.85283 | -1.64032 | 965 ft | 85 kts | 311° |
| 2026-04-28 20:28 | 53.85694 | -1.64688 | 731 ft | 76 kts | 319° |
| 2026-04-28 20:28 | 53.86055 | -1.65230 | 659 ft | 62 kts | 316° |
| 2026-04-28 20:29 | 53.86323 | -1.65653 | 656 ft | 45 kts | 318° |
| 2026-04-28 20:29 | 53.86609 | -1.66089 | 673 ft | 75 kts | 316° |
| 2026-04-28 20:29 | 53.87018 | -1.66734 | 908 ft | 81 kts | 315° |
| 2026-04-28 20:29 | 53.87470 | -1.67287 | 1246 ft | 78 kts | 327° |
| 2026-04-28 20:30 | 53.87906 | -1.67797 | 1572 ft | 77 kts | 324° |
| 2026-04-28 20:30 | 53.88179 | -1.68591 | 1561 ft | 87 kts | 276° |
| 2026-04-28 20:30 | 53.87888 | -1.69384 | 1525 ft | 89 kts | 204° |
| 2026-04-28 20:30 | 53.87292 | -1.69592 | 1526 ft | 87 kts | 199° |
| 2026-04-28 20:31 | 53.86704 | -1.69966 | 1467 ft | 93 kts | 194° |
| 2026-04-28 20:31 | 53.86153 | -1.69541 | 1437 ft | 100 kts | 119° |
| 2026-04-28 20:31 | 53.85756 | -1.68628 | 1495 ft | 95 kts | 136° |
| 2026-04-28 20:31 | 53.85314 | -1.67851 | 1650 ft | 89 kts | 134° |
| 2026-04-28 20:32 | 53.84889 | -1.67109 | 1705 ft | 87 kts | 135° |
| 2026-04-28 20:32 | 53.84448 | -1.66359 | 1678 ft | 94 kts | 139° |
| 2026-04-28 20:32 | 53.83966 | -1.65678 | 1697 ft | 92 kts | 144° |
| 2026-04-28 20:32 | 53.83658 | -1.64763 | 1626 ft | 98 kts | 78° |
| 2026-04-28 20:33 | 53.84073 | -1.64056 | 1669 ft | 76 kts | 21° |
| 2026-04-28 20:33 | 53.84568 | -1.63716 | 1481 ft | 83 kts | 21° |
| 2026-04-28 20:33 | 53.85134 | -1.63652 | 1140 ft | 83 kts | 333° |
| 2026-04-28 20:33 | 53.85515 | -1.64345 | 851 ft | 78 kts | 308° |
| 2026-04-28 20:34 | 53.85866 | -1.64964 | 732 ft | 75 kts | 316° |
| 2026-04-28 20:34 | 53.86323 | -1.65628 | 851 ft | 97 kts | 320° |
| 2026-04-28 20:34 | 53.86840 | -1.66400 | 1111 ft | 99 kts | 317° |
| 2026-04-28 20:34 | 53.87333 | -1.67166 | 1442 ft | 95 kts | 316° |
| 2026-04-28 20:35 | 53.87834 | -1.68014 | 1615 ft | 98 kts | 317° |
| 2026-04-28 20:35 | 53.88099 | -1.68926 | 1605 ft | 89 kts | 256° |
| 2026-04-28 20:35 | 53.87602 | -1.69487 | 1501 ft | 94 kts | 187° |
| 2026-04-28 20:35 | 53.86984 | -1.69708 | 1472 ft | 91 kts | 201° |
| 2026-04-28 20:36 | 53.86390 | -1.69679 | 1515 ft | 85 kts | 149° |
| 2026-04-28 20:36 | 53.86015 | -1.68891 | 1513 ft | 92 kts | 129° |
| 2026-04-28 20:36 | 53.85513 | -1.68132 | 1470 ft | 98 kts | 144° |
| 2026-04-28 20:36 | 53.84991 | -1.67425 | 1533 ft | 93 kts | 141° |
| 2026-04-28 20:37 | 53.84510 | -1.66714 | 1565 ft | 94 kts | 136° |
| 2026-04-28 20:37 | 53.84048 | -1.65935 | 1610 ft | 92 kts | 135° |
| 2026-04-28 20:37 | 53.83593 | -1.65176 | 1653 ft | 92 kts | 138° |
| 2026-04-28 20:37 | 53.83084 | -1.64524 | 1690 ft | 92 kts | 150° |
| 2026-04-28 20:38 | 53.82895 | -1.64373 | 1736 ft | 87 kts | 163° |
| 2026-04-28 20:38 | 53.82382 | -1.64425 | 1785 ft | 82 kts | 214° |
| 2026-04-28 20:38 | 53.82231 | -1.65336 | 1742 ft | 90 kts | 291° |
| 2026-04-28 20:38 | 53.82721 | -1.65946 | 1715 ft | 97 kts | 349° |
| 2026-04-28 20:39 | 53.83387 | -1.65801 | 1693 ft | 101 kts | 22° |
| 2026-04-28 20:39 | 53.83936 | -1.65224 | 1725 ft | 75 kts | 33° |
| 2026-04-28 20:39 | 53.84343 | -1.64650 | 1536 ft | 82 kts | 45° |
| 2026-04-28 20:39 | 53.84726 | -1.63931 | 1286 ft | 82 kts | 44° |
| 2026-04-28 20:40 | 53.85221 | -1.63743 | 1060 ft | 72 kts | 327° |
| 2026-04-28 20:40 | 53.85553 | -1.64414 | 852 ft | 79 kts | 308° |
| 2026-04-28 20:40 | 53.85937 | -1.65060 | 697 ft | 73 kts | 318° |
| 2026-04-28 20:40 | 53.86267 | -1.65560 | 659 ft | 53 kts | 314° |
| 2026-04-28 20:41 | 53.86598 | -1.66080 | 682 ft | 82 kts | 316° |
| 2026-04-28 20:41 | 53.87029 | -1.66636 | 998 ft | 78 kts | 322° |
| 2026-04-28 20:41 | 53.87480 | -1.67173 | 1284 ft | 78 kts | 323° |
| 2026-04-28 20:41 | 53.87915 | -1.67757 | 1546 ft | 81 kts | 316° |
| 2026-04-28 20:42 | 53.88322 | -1.68455 | 1594 ft | 83 kts | 300° |
| 2026-04-28 20:42 | 53.88268 | -1.69359 | 1615 ft | 84 kts | 228° |
| 2026-04-28 20:42 | 53.87710 | -1.69607 | 1620 ft | 89 kts | 172° |
| 2026-04-28 20:42 | 53.87070 | -1.69941 | 1443 ft | 103 kts | 205° |
| 2026-04-28 20:43 | 53.86424 | -1.69953 | 1518 ft | 98 kts | 155° |
| 2026-04-28 20:43 | 53.85861 | -1.69292 | 1543 ft | 96 kts | 146° |
| 2026-04-28 20:43 | 53.85314 | -1.68644 | 1574 ft | 96 kts | 147° |
| 2026-04-28 20:43 | 53.84757 | -1.68023 | 1599 ft | 96 kts | 148° |
| 2026-04-28 20:44 | 53.84223 | -1.67351 | 1621 ft | 93 kts | 137° |
| 2026-04-28 20:44 | 53.83849 | -1.66501 | 1688 ft | 89 kts | 118° |
| 2026-04-28 20:44 | 53.83762 | -1.65469 | 1723 ft | 89 kts | 87° |
| 2026-04-28 20:44 | 53.83971 | -1.64553 | 1771 ft | 86 kts | 43° |
| 2026-04-28 20:45 | 53.84442 | -1.63892 | 1682 ft | 77 kts | 35° |
| 2026-04-28 20:45 | 53.84939 | -1.63559 | 1396 ft | 80 kts | 348° |
| 2026-04-28 20:45 | 53.85384 | -1.64164 | 1006 ft | 88 kts | 311° |
| 2026-04-28 20:45 | 53.85817 | -1.64877 | 697 ft | 79 kts | 317° |
| 2026-04-28 20:46 | 53.86170 | -1.65403 | 658 ft | 56 kts | 315° |
| 2026-04-28 20:46 | 53.86397 | -1.65762 | 657 ft | 34 kts | 317° |
| 2026-04-28 20:46 | 53.86465 | -1.65867 | 657 ft | 14 kts | 319° |
| 2026-04-28 20:46 | 53.86521 | -1.65960 | 658 ft | 19 kts | 316° |
| 2026-04-28 20:47 | 53.86522 | -1.66138 | 661 ft | 18 kts | 227° |
| 2026-04-28 20:47 | 53.86482 | -1.66230 | 661 ft | 1 kts | 265° |
| 2026-04-28 20:47 | 53.86422 | -1.66309 | 665 ft | 0 kts | 223° |
| 2026-04-28 20:47 | 53.86415 | -1.66321 | 666 ft | 0 kts | 221° |